createdAt,value
2023-04-22T00:01:25.996Z,1.80
2023-04-22T00:03:53.549Z,1.90
2023-04-22T00:06:20.937Z,1.65
2023-04-22T00:08:50.878Z,1.90
2023-04-22T00:11:18.125Z,1.75
2023-04-22T00:13:45.449Z,1.75
2023-04-22T00:16:12.749Z,1.70
2023-04-22T00:18:40.043Z,1.80
2023-04-22T00:21:07.875Z,1.70
2023-04-22T00:23:35.165Z,1.80
2023-04-22T00:26:02.705Z,1.73
2023-04-22T00:28:29.956Z,1.88
2023-04-22T00:30:58.855Z,1.90
2023-04-22T00:33:26.169Z,1.80
2023-04-22T00:35:54.740Z,1.60
2023-04-22T00:38:24.288Z,1.70
2023-04-22T00:40:51.516Z,1.85
2023-04-22T00:43:18.740Z,1.52
2023-04-22T00:45:46.125Z,1.67
2023-04-22T00:48:14.405Z,1.77
2023-04-22T00:50:41.867Z,2.00
2023-04-22T00:53:09.185Z,1.80
2023-04-22T00:55:38.897Z,1.70
2023-04-22T00:58:06.292Z,2.10
2023-04-22T01:00:33.736Z,1.70
2023-04-22T01:03:01.250Z,1.98
2023-04-22T01:05:32.282Z,1.60
2023-04-22T01:07:59.516Z,2.03
2023-04-22T01:10:26.837Z,1.80
2023-04-22T01:12:54.049Z,1.80
2023-04-22T01:15:21.364Z,2.10
2023-04-22T01:17:48.636Z,1.80
2023-04-22T01:20:16.448Z,1.83
2023-04-22T01:22:45.713Z,1.67
2023-04-22T01:25:13.190Z,1.88
2023-04-22T01:27:40.932Z,2.00
2023-04-22T01:30:08.814Z,1.80
2023-04-22T01:32:36.318Z,2.10
2023-04-22T01:35:03.831Z,1.58
2023-04-22T01:37:31.128Z,1.80
2023-04-22T01:39:59.355Z,1.87
2023-04-22T01:44:53.756Z,1.90
2023-04-22T01:47:20.987Z,2.00
2023-04-22T01:49:48.223Z,1.63
2023-04-22T01:52:15.429Z,1.92
2023-04-22T01:54:42.674Z,1.80
2023-04-22T01:57:11.706Z,2.00
2023-04-22T01:59:39.096Z,1.85
2023-04-22T02:02:06.726Z,2.10
2023-04-22T02:04:34.026Z,2.30
2023-04-22T02:07:01.442Z,2.20
2023-04-22T02:09:28.662Z,1.90
2023-04-22T02:11:55.902Z,1.80
2023-04-22T02:14:23.105Z,1.90
2023-04-22T02:16:50.363Z,2.20
2023-04-22T02:19:17.569Z,1.77
2023-04-22T02:21:44.982Z,1.80
2023-04-22T02:24:12.227Z,2.08
2023-04-22T02:26:39.457Z,1.80
2023-04-22T02:29:06.667Z,1.90
2023-04-22T02:31:33.981Z,1.85
2023-04-22T02:34:01.236Z,2.00
2023-04-22T02:36:32.467Z,1.92
2023-04-22T02:39:00.155Z,2.00
2023-04-22T02:41:27.400Z,2.10
2023-04-22T02:43:54.649Z,2.03
2023-04-22T02:46:21.923Z,1.87
2023-04-22T02:48:49.551Z,1.90
2023-04-22T02:51:16.776Z,1.90
2023-04-22T02:53:43.984Z,1.98
2023-04-22T02:56:11.285Z,1.80
2023-04-22T02:58:38.575Z,2.20
2023-04-22T03:01:06.127Z,2.13
2023-04-22T03:03:33.518Z,1.80
2023-04-22T03:06:00.978Z,1.90
2023-04-22T03:08:28.196Z,2.00
2023-04-22T03:10:55.624Z,2.10
2023-04-22T03:13:22.884Z,1.90
2023-04-22T03:15:50.117Z,2.00
2023-04-22T03:18:17.346Z,2.20
2023-04-22T03:20:44.579Z,2.00
2023-04-22T03:23:11.799Z,1.90
2023-04-22T03:25:39.209Z,1.75
2023-04-22T03:28:06.434Z,2.07
2023-04-22T03:30:33.732Z,1.88
2023-04-22T03:33:01.049Z,1.77
2023-04-22T03:35:28.297Z,1.70
2023-04-22T03:37:55.602Z,1.80
2023-04-22T03:40:22.848Z,1.90
2023-04-22T03:42:50.080Z,2.03
2023-04-22T03:45:17.566Z,2.17
2023-04-22T03:47:44.829Z,1.90
2023-04-22T03:50:12.313Z,2.03
2023-04-22T03:52:39.542Z,1.90
2023-04-22T03:55:06.907Z,2.30
2023-04-22T03:57:34.139Z,1.90
2023-04-22T04:00:01.359Z,1.95
2023-04-22T04:02:28.724Z,2.08
2023-04-22T04:04:56.151Z,1.92
2023-04-22T04:07:23.628Z,1.65
2023-04-22T04:09:50.886Z,2.00
2023-04-22T04:12:18.130Z,1.88
2023-04-22T04:14:45.471Z,1.77
2023-04-22T04:17:14.156Z,2.10
2023-04-22T04:19:41.870Z,1.90
2023-04-22T04:22:10.627Z,2.10
2023-04-22T04:24:42.087Z,2.00
2023-04-22T04:27:09.635Z,1.70
2023-04-22T04:29:36.943Z,2.17
2023-04-22T04:32:04.838Z,1.87
2023-04-22T04:34:32.386Z,2.10
2023-04-22T04:36:59.637Z,1.70
2023-04-22T04:39:29.177Z,1.80
2023-04-22T04:41:58.741Z,2.00
2023-04-22T04:44:26.450Z,1.85
2023-04-22T04:46:54.931Z,2.13
2023-04-22T04:49:22.844Z,1.80
2023-04-22T04:51:50.330Z,1.90
2023-04-22T04:54:17.637Z,1.95
2023-04-22T04:56:44.967Z,1.80
2023-04-22T04:59:12.204Z,2.10
2023-04-22T05:01:39.621Z,1.97
2023-04-22T05:04:07.027Z,2.03
2023-04-22T05:06:34.398Z,2.08
2023-04-22T05:09:01.651Z,2.00
2023-04-22T05:11:29.067Z,1.90
2023-04-22T05:16:23.535Z,1.92
2023-04-22T05:18:50.876Z,1.90
2023-04-22T05:21:18.200Z,2.27
2023-04-22T05:23:45.430Z,2.10
2023-04-22T05:26:12.719Z,2.88
2023-04-22T05:28:39.912Z,4.00
2023-04-22T05:31:11.620Z,4.85
2023-04-22T05:33:38.883Z,4.88
2023-04-22T05:36:06.345Z,5.55
2023-04-22T05:38:33.579Z,6.32
2023-04-22T05:41:00.806Z,11.45
2023-04-22T05:43:28.015Z,13.40
2023-04-22T05:45:55.359Z,14.60
2023-04-22T05:48:22.650Z,15.17
2023-04-22T05:50:49.908Z,11.73
2023-04-22T05:53:18.121Z,12.38
2023-04-22T05:58:12.521Z,11.70
2023-04-22T06:00:39.790Z,11.48
2023-04-22T06:03:07.128Z,10.93
2023-04-22T06:05:34.538Z,11.10
2023-04-22T06:08:01.766Z,11.60
2023-04-22T06:10:29.090Z,12.05
2023-04-22T06:12:56.380Z,10.60
2023-04-22T06:15:23.611Z,11.02
2023-04-22T06:17:50.868Z,11.40
2023-04-22T06:20:18.252Z,10.80
2023-04-22T06:22:45.524Z,11.00
2023-04-22T06:25:12.763Z,10.53
2023-04-22T06:27:40.060Z,11.52
2023-04-22T06:30:07.656Z,10.77
2023-04-22T06:32:34.924Z,11.05
2023-04-22T06:35:02.142Z,10.20
2023-04-22T06:37:29.391Z,15.52
2023-04-22T06:39:56.689Z,12.48
2023-04-22T06:42:23.895Z,10.10
2023-04-22T06:44:51.111Z,10.40
2023-04-22T06:47:18.433Z,9.63
2023-04-22T06:49:45.789Z,9.43
2023-04-22T06:52:13.051Z,8.60
2023-04-22T06:54:40.268Z,8.10
2023-04-22T06:57:08.149Z,7.35
2023-04-22T06:59:35.462Z,7.40
2023-04-22T07:02:02.809Z,7.00
2023-04-22T07:04:31.747Z,7.10
2023-04-22T07:06:59.047Z,6.40
2023-04-22T07:09:26.292Z,5.93
2023-04-22T07:11:53.534Z,5.90
2023-04-22T07:14:20.897Z,5.70
2023-04-22T07:16:48.317Z,5.20
2023-04-22T07:19:15.701Z,5.38
2023-04-22T07:21:43.132Z,4.77
2023-04-22T07:24:13.158Z,5.30
2023-04-22T07:26:44.090Z,5.32
2023-04-22T07:29:13.791Z,4.57
2023-04-22T07:31:41.091Z,4.07
2023-04-22T07:34:10.593Z,4.40
2023-04-22T07:36:38.051Z,4.22
2023-04-22T07:39:05.313Z,4.70
2023-04-22T07:41:32.591Z,3.83
2023-04-22T07:44:00.581Z,3.87
2023-04-22T07:46:27.889Z,3.53
2023-04-22T07:48:55.298Z,3.50
2023-04-22T07:51:22.562Z,3.30
2023-04-22T07:53:49.777Z,3.40
2023-04-22T07:56:16.995Z,3.47
2023-04-22T07:58:44.268Z,3.40
2023-04-22T08:01:11.592Z,3.50
2023-04-22T08:03:39.090Z,3.33
2023-04-22T08:06:06.620Z,3.30
2023-04-22T08:08:33.898Z,3.37
2023-04-22T08:11:01.103Z,3.42
2023-04-22T08:13:28.325Z,3.20
2023-04-22T08:15:58.141Z,2.90
2023-04-22T08:18:25.588Z,2.78
2023-04-22T08:20:52.808Z,3.10
2023-04-22T08:23:20.048Z,3.28
2023-04-22T08:25:47.265Z,3.00
2023-04-22T08:28:14.992Z,3.15
2023-04-22T08:30:42.273Z,3.25
2023-04-22T08:33:09.543Z,3.00
2023-04-22T08:35:37.098Z,2.90
2023-04-22T08:38:04.447Z,2.85
2023-04-22T08:40:31.728Z,2.73
2023-04-22T08:42:59.029Z,3.30
2023-04-22T08:45:26.406Z,2.80
2023-04-22T08:47:54.709Z,3.10
2023-04-22T08:50:22.524Z,3.55
2023-04-22T08:52:52.344Z,3.95
2023-04-22T08:55:20.514Z,3.75
2023-04-22T09:00:15.224Z,3.83
2023-04-22T09:02:45.081Z,3.85
2023-04-22T09:05:14.238Z,3.42
2023-04-22T09:07:42.107Z,4.55
2023-04-22T09:10:11.814Z,3.97
2023-04-22T09:12:39.714Z,4.38
2023-04-22T09:15:08.606Z,4.80
2023-04-22T09:17:38.364Z,5.18
2023-04-22T09:20:07.282Z,5.18
2023-04-22T09:22:39.316Z,4.40
2023-04-22T09:25:06.853Z,4.53
2023-04-22T09:27:36.376Z,4.63
2023-04-22T09:30:08.824Z,5.07
2023-04-22T09:32:36.135Z,5.35
2023-04-22T09:35:06.002Z,5.07
2023-04-22T09:37:46.329Z,4.90
2023-04-22T09:40:16.881Z,5.28
2023-04-22T09:42:54.404Z,5.00
2023-04-22T09:45:28.493Z,5.20
2023-04-22T09:47:57.148Z,5.35
2023-04-22T09:50:28.100Z,4.93
2023-04-22T09:52:56.538Z,4.65
2023-04-22T09:55:25.090Z,4.95
2023-04-22T09:57:55.688Z,5.90
2023-04-22T10:00:28.344Z,6.68
2023-04-22T10:02:55.688Z,8.50
2023-04-22T10:05:23.024Z,10.80
2023-04-22T10:07:50.569Z,12.23
2023-04-22T10:10:17.859Z,11.18
2023-04-22T10:12:45.352Z,10.37
2023-04-22T10:15:12.648Z,9.68
2023-04-22T10:17:40.411Z,8.70
2023-04-22T10:20:13.941Z,8.70
2023-04-22T10:22:44.322Z,8.35
2023-04-22T10:25:22.479Z,7.97
2023-04-22T10:30:27.471Z,8.13
2023-04-22T10:32:54.905Z,7.43
2023-04-22T10:35:29.171Z,7.32
2023-04-22T10:37:56.473Z,7.22
2023-04-22T10:40:23.841Z,7.50
2023-04-22T10:42:52.407Z,6.57
2023-04-22T10:45:20.216Z,6.85
2023-04-22T10:47:47.493Z,6.78
2023-04-22T10:50:17.924Z,6.25
2023-04-22T10:52:47.970Z,6.10
2023-04-22T10:55:15.484Z,6.22
2023-04-22T10:57:46.455Z,6.03
2023-04-22T11:00:45.842Z,5.60
2023-04-22T11:03:25.711Z,6.15
2023-04-22T11:06:12.954Z,6.00
2023-04-22T11:08:44.473Z,5.80
2023-04-22T11:11:13.649Z,6.25
2023-04-22T11:13:44.128Z,5.25
2023-04-22T11:16:11.754Z,5.85
2023-04-22T11:18:39.312Z,6.15
2023-04-22T11:21:08.480Z,6.03
2023-04-22T11:23:39.253Z,5.78
2023-04-22T11:26:07.614Z,5.95
2023-04-22T11:28:34.860Z,5.85
2023-04-22T11:31:06.587Z,5.55
2023-04-22T11:33:35.030Z,5.80
2023-04-22T11:36:04.664Z,5.53
2023-04-22T11:38:33.137Z,5.82
2023-04-22T11:41:00.533Z,5.22
2023-04-22T11:43:27.831Z,5.47
2023-04-22T11:45:57.027Z,5.30
2023-04-22T11:48:24.565Z,5.63
2023-04-22T11:51:07.436Z,4.80
2023-04-22T11:53:34.655Z,5.13
2023-04-22T11:56:04.087Z,5.00
2023-04-22T11:58:31.535Z,5.45
2023-04-22T12:00:59.336Z,5.20
2023-04-22T12:03:27.911Z,4.70
2023-04-22T12:05:58.514Z,4.78
2023-04-22T12:08:33.260Z,4.70
2023-04-22T12:11:01.967Z,4.22
2023-04-22T12:13:30.428Z,5.10
2023-04-22T12:16:02.551Z,4.30
2023-04-22T12:18:30.895Z,5.03
2023-04-22T12:21:01.776Z,4.70
2023-04-22T12:23:28.987Z,4.30
2023-04-22T12:25:56.313Z,4.85
2023-04-22T12:28:23.837Z,4.30
2023-04-22T12:30:51.125Z,4.70
2023-04-22T12:33:18.407Z,4.53
2023-04-22T12:35:47.102Z,4.33
2023-04-22T12:38:14.324Z,4.40
2023-04-22T12:40:41.512Z,4.25
2023-04-22T12:43:08.752Z,4.63
2023-04-22T12:45:36.003Z,3.58
2023-04-22T12:48:03.279Z,3.72
2023-04-22T12:50:30.598Z,3.83
2023-04-22T12:52:57.860Z,4.07
2023-04-22T12:55:25.303Z,4.03
2023-04-22T12:57:52.788Z,4.38
2023-04-22T13:00:20.708Z,4.45
2023-04-22T13:02:48.911Z,4.18
2023-04-22T13:05:16.961Z,4.30
2023-04-22T13:07:45.441Z,4.40
2023-04-22T13:10:15.559Z,4.38
2023-04-22T13:12:43.346Z,3.95
2023-04-22T13:15:11.413Z,4.03
2023-04-22T13:17:39.203Z,3.70
2023-04-22T13:20:09.515Z,4.07
2023-04-22T13:22:36.925Z,3.85
2023-04-22T13:25:04.379Z,4.10
2023-04-22T13:27:31.696Z,4.03
2023-04-22T13:29:59.013Z,4.20
2023-04-22T13:32:26.337Z,4.80
2023-04-22T13:34:53.607Z,4.80
2023-04-22T13:37:21.518Z,4.53
2023-04-22T13:39:49.430Z,5.50
2023-04-22T13:42:16.948Z,4.90
2023-04-22T13:44:44.197Z,4.60
2023-04-22T13:47:11.888Z,4.50
2023-04-22T13:49:39.500Z,4.18
2023-04-22T13:52:06.926Z,4.43
2023-04-22T13:54:34.181Z,4.20
2023-04-22T13:57:03.069Z,4.18
2023-04-22T13:59:31.792Z,4.25
2023-04-22T14:01:59.012Z,4.13
2023-04-22T14:04:26.406Z,4.63
2023-04-22T14:06:53.682Z,4.32
2023-04-22T14:09:20.941Z,4.18
2023-04-22T14:11:48.172Z,4.53
2023-04-22T14:14:15.399Z,3.85
2023-04-22T14:16:42.669Z,4.32
2023-04-22T14:19:10.219Z,3.90
2023-04-22T14:21:37.465Z,4.20
2023-04-22T14:24:04.768Z,3.30
2023-04-22T14:26:32.700Z,4.13
2023-04-22T14:29:00.071Z,3.70
2023-04-22T14:31:27.384Z,3.60
2023-04-22T14:33:54.749Z,3.53
2023-04-22T14:36:22.014Z,4.20
2023-04-22T14:38:49.297Z,3.90
2023-04-22T14:41:16.574Z,3.63
2023-04-22T14:43:43.863Z,3.70
2023-04-22T14:46:11.102Z,3.83
2023-04-22T14:48:39.429Z,3.55
2023-04-22T14:51:06.733Z,3.67
2023-04-22T14:53:34.488Z,3.45
2023-04-22T14:56:01.742Z,4.00
2023-04-22T14:58:31.538Z,3.78
2023-04-22T15:00:59.937Z,3.85
2023-04-22T15:03:27.591Z,3.50
2023-04-22T15:05:55.800Z,3.70
2023-04-22T15:08:25.224Z,3.88
2023-04-22T15:10:54.705Z,3.97
2023-04-22T15:13:22.204Z,3.80
2023-04-22T15:15:49.442Z,3.30
2023-04-22T15:18:16.787Z,4.10
2023-04-22T15:20:44.048Z,3.20
2023-04-22T15:23:11.343Z,3.78
2023-04-22T15:25:38.757Z,4.70
2023-04-22T15:28:06.106Z,4.55
2023-04-22T15:30:33.346Z,5.33
2023-04-22T15:33:00.671Z,4.85
2023-04-22T15:35:27.935Z,4.57
2023-04-22T15:37:57.494Z,4.53
2023-04-22T15:40:24.885Z,4.43
2023-04-22T15:42:52.152Z,4.10
2023-04-22T15:45:21.396Z,4.80
2023-04-22T15:47:48.686Z,4.53
2023-04-22T15:50:16.474Z,4.70
2023-04-22T15:52:43.697Z,5.20
2023-04-22T15:55:11.082Z,5.20
2023-04-22T15:57:38.351Z,5.20
2023-04-22T16:00:12.047Z,4.40
2023-04-22T16:02:40.737Z,4.55
2023-04-22T16:05:08.277Z,4.57
2023-04-22T16:07:35.715Z,4.63
2023-04-22T16:10:03.093Z,4.43
2023-04-22T16:12:32.019Z,4.20
2023-04-22T16:15:00.779Z,4.45
2023-04-22T16:17:28.081Z,4.00
2023-04-22T16:19:55.792Z,4.28
2023-04-22T16:22:23.137Z,5.50
2023-04-22T16:24:50.514Z,5.73
2023-04-22T16:27:19.335Z,5.50
2023-04-22T16:29:46.983Z,5.03
2023-04-22T16:32:14.292Z,5.30
2023-04-22T16:34:41.544Z,4.43
2023-04-22T16:37:08.836Z,4.93
2023-04-22T16:39:36.044Z,4.67
2023-04-22T16:42:03.298Z,4.50
2023-04-22T16:44:30.602Z,4.82
2023-04-22T16:46:57.838Z,4.30
2023-04-22T16:49:25.188Z,4.35
2023-04-22T16:51:52.448Z,4.50
2023-04-22T16:54:19.724Z,4.67
2023-04-22T16:56:46.933Z,4.30
2023-04-22T16:59:14.502Z,4.30
2023-04-22T17:01:42.157Z,4.60
2023-04-22T17:04:09.559Z,4.85
2023-04-22T17:06:39.618Z,4.63
2023-04-22T17:09:07.341Z,4.63
2023-04-22T17:11:34.582Z,4.70
2023-04-22T17:14:01.871Z,4.55
2023-04-22T17:16:29.146Z,4.70
2023-04-22T17:18:56.454Z,4.47
2023-04-22T17:21:23.679Z,5.20
2023-04-22T17:23:51.210Z,4.55
2023-04-22T17:26:18.536Z,4.53
2023-04-22T17:28:45.823Z,4.00
2023-04-22T17:31:13.589Z,4.27
2023-04-22T17:33:41.246Z,3.88
2023-04-22T17:36:08.745Z,3.88
2023-04-22T17:38:38.325Z,4.35
2023-04-22T17:41:06.287Z,4.45
2023-04-22T17:43:33.531Z,4.15
2023-04-22T17:46:00.733Z,4.53
2023-04-22T17:48:27.970Z,4.60
2023-04-22T17:50:55.337Z,4.53
2023-04-22T17:53:22.663Z,4.10
2023-04-22T17:55:49.927Z,4.23
2023-04-22T17:58:17.169Z,3.83
2023-04-22T18:00:44.480Z,3.97
2023-04-22T18:03:11.860Z,4.10
2023-04-22T18:05:43.208Z,4.13
2023-04-22T18:08:10.955Z,4.20
2023-04-22T18:10:38.890Z,25.05
2023-04-22T18:13:06.810Z,28.08
2023-04-22T18:15:34.039Z,20.48
2023-04-22T18:18:01.426Z,16.25
2023-04-22T18:20:28.747Z,15.05
2023-04-22T18:22:56.528Z,15.03
2023-04-22T18:25:24.398Z,15.00
2023-04-22T18:27:54.996Z,15.60
2023-04-22T18:30:22.832Z,13.02
2023-04-22T18:32:50.310Z,13.70
2023-04-22T18:35:17.578Z,12.77
2023-04-22T18:37:47.342Z,13.57
2023-04-22T18:40:15.008Z,13.75
2023-04-22T18:42:44.732Z,12.18
2023-04-22T18:45:12.617Z,13.30
2023-04-22T18:47:39.996Z,11.73
2023-04-22T18:50:07.656Z,10.87
2023-04-22T18:52:37.165Z,12.25
2023-04-22T18:55:04.585Z,12.10
2023-04-22T18:57:31.869Z,11.50
2023-04-22T18:59:59.128Z,11.52
2023-04-22T19:02:26.492Z,11.17
2023-04-22T19:04:54.277Z,10.87
2023-04-22T19:07:21.664Z,10.77
2023-04-22T19:09:48.963Z,11.70
2023-04-22T19:12:19.032Z,11.17
2023-04-22T19:14:47.910Z,10.88
2023-04-22T19:17:15.397Z,11.10
2023-04-22T19:19:42.902Z,10.10
2023-04-22T19:22:12.463Z,10.02
2023-04-22T19:24:39.856Z,10.05
2023-04-22T19:27:12.525Z,10.70
2023-04-22T19:29:41.569Z,9.90
2023-04-22T19:32:12.397Z,9.85
2023-04-22T19:34:39.825Z,9.48
2023-04-22T19:37:08.266Z,9.67
2023-04-22T19:39:35.977Z,9.90
2023-04-22T19:42:06.163Z,10.27
2023-04-22T19:44:33.374Z,15.07
2023-04-22T19:47:01.383Z,15.23
2023-04-22T19:49:31.120Z,14.63
2023-04-22T19:52:01.079Z,14.20
2023-04-22T19:54:30.444Z,14.40
2023-04-22T19:56:58.564Z,13.45
2023-04-22T19:59:28.000Z,13.35
2023-04-22T20:01:55.489Z,12.32
2023-04-22T20:04:23.181Z,12.82
2023-04-22T20:06:51.797Z,12.35
2023-04-22T20:09:19.294Z,11.52
2023-04-22T20:11:47.187Z,11.40
2023-04-22T20:14:14.479Z,11.45
2023-04-22T20:16:42.346Z,11.57
2023-04-22T20:19:11.377Z,10.38
2023-04-22T20:21:39.932Z,10.73
2023-04-22T20:24:08.281Z,10.90
2023-04-22T20:26:35.891Z,11.15
2023-04-22T20:29:03.452Z,11.02
2023-04-22T20:31:30.856Z,10.07
2023-04-22T20:33:58.268Z,10.32
2023-04-22T20:36:26.496Z,9.33
2023-04-22T20:38:55.519Z,10.13
2023-04-22T20:41:24.641Z,9.63
2023-04-22T20:43:52.481Z,10.18
2023-04-22T20:46:22.755Z,9.70
2023-04-22T20:48:50.151Z,9.60
2023-04-22T20:51:17.393Z,9.65
2023-04-22T20:53:45.414Z,9.65
2023-04-22T20:56:13.286Z,8.70
2023-04-22T20:58:40.502Z,9.43
2023-04-22T21:01:08.938Z,9.48
2023-04-22T21:03:38.021Z,9.10
2023-04-22T21:06:05.807Z,8.90
2023-04-22T21:08:34.839Z,8.65
2023-04-22T21:11:02.204Z,9.05
2023-04-22T21:13:29.548Z,8.27
2023-04-22T21:16:02.127Z,8.13
2023-04-22T21:18:29.909Z,8.27
2023-04-22T21:20:57.442Z,8.30
2023-04-22T21:23:25.413Z,8.50
2023-04-22T21:25:55.017Z,8.02
2023-04-22T21:28:22.619Z,8.05
2023-04-22T21:30:50.154Z,8.88
2023-04-22T21:33:17.447Z,7.75
2023-04-22T21:35:44.695Z,8.33
2023-04-22T21:38:12.271Z,8.57
2023-04-22T21:40:39.508Z,7.78
2023-04-22T21:43:06.864Z,8.00
2023-04-22T21:45:34.191Z,7.60
2023-04-22T21:48:01.483Z,7.90
2023-04-22T21:50:30.221Z,7.33
2023-04-22T21:52:57.914Z,7.82
2023-04-22T21:55:25.185Z,8.52
2023-04-22T21:57:52.581Z,7.60
2023-04-22T22:00:19.819Z,8.23
2023-04-22T22:02:47.792Z,7.27
2023-04-22T22:05:15.985Z,7.13
2023-04-22T22:07:44.779Z,7.28
2023-04-22T22:10:18.965Z,7.65
2023-04-22T22:12:46.989Z,7.60
2023-04-22T22:15:16.145Z,7.38
2023-04-22T22:17:44.071Z,7.40
2023-04-22T22:20:12.355Z,7.60
2023-04-22T22:25:08.161Z,6.68
2023-04-22T22:27:35.744Z,7.03
2023-04-22T22:30:03.196Z,6.65
2023-04-22T22:32:30.980Z,6.80
2023-04-22T22:34:59.132Z,6.60
2023-04-22T22:39:53.532Z,6.60
2023-04-22T22:42:20.729Z,6.53
2023-04-22T22:44:47.912Z,6.78
2023-04-22T22:47:17.544Z,6.82
2023-04-22T22:49:45.056Z,6.38
2023-04-22T22:52:12.715Z,6.30
2023-04-22T22:54:41.113Z,6.72
2023-04-22T22:57:09.097Z,6.15
2023-04-22T22:59:37.553Z,6.30
2023-04-22T23:02:05.459Z,6.50
2023-04-22T23:04:32.933Z,6.32
2023-04-22T23:07:00.318Z,6.13
2023-04-22T23:09:27.595Z,5.70
2023-04-22T23:11:55.544Z,6.00
2023-04-22T23:14:23.526Z,6.28
2023-04-22T23:16:51.134Z,6.40
2023-04-22T23:19:18.587Z,6.22
2023-04-22T23:21:46.848Z,5.43
2023-04-22T23:24:15.158Z,5.82
2023-04-22T23:26:42.945Z,5.63
2023-04-22T23:29:10.479Z,6.22
2023-04-22T23:31:37.760Z,5.93
2023-04-22T23:34:06.024Z,5.73
2023-04-22T23:36:36.487Z,5.63
2023-04-22T23:39:04.617Z,5.75
2023-04-22T23:41:31.930Z,5.80
2023-04-22T23:44:01.647Z,5.77
2023-04-22T23:46:28.910Z,5.45
2023-04-22T23:48:57.228Z,5.73
2023-04-22T23:51:24.835Z,5.22
2023-04-22T23:53:52.084Z,5.63
2023-04-22T23:56:21.199Z,5.40
2023-04-22T23:58:48.877Z,5.30
